This is the latest recevied weather packets stored in our database for station/object SQ7KHZ-10. If no packets are shown the sender has not sent any weather packets the latest 10 day(s).
| Time | Temp. | Humidity | Pressure | Rain* | Wind** | Luminosity | Snow |
|---|---|---|---|---|---|---|---|
| 1777722580 | 22.22° C | 40% | 1023.2 hPa | 0 mm | - | - | - |
| 1777721373 | 22.22° C | 37% | 1023.5 hPa | 0 mm | - | - | - |
| 1777720167 | 22.22° C | 36% | 1023.7 hPa | 0 mm | - | - | - |
| 1777718965 | 21.67° C | 38% | 1023.9 hPa | 0 mm | - | - | - |
| 1777717758 | 22.22° C | 38% | 1024.1 hPa | 0 mm | - | - | - |
| 1777716553 | 21.11° C | 43% | 1024.3 hPa | 0 mm | - | - | - |
| 1777715348 | 20.56° C | 42% | 1024.4 hPa | 0 mm | - | - | - |
| 1777714144 | 20.56° C | 45% | 1024.7 hPa | 0 mm | - | - | - |
| 1777712937 | 20° C | 41% | 1024.8 hPa | 0 mm | - | - | - |
| 1777711719 | 20° C | 44% | 1025 hPa | 0 mm | - | - | - |
| 1777710512 | 19.44° C | 48% | 1025.1 hPa | 0 mm | - | - | - |
| 1777708114 | 19.44° C | 52% | 1025.2 hPa | 0 mm | - | - | - |
| 1777706909 | 17.78° C | 54% | 1025.3 hPa | 0 mm | - | - | - |
| 1777705703 | 17.22° C | 55% | 1025.2 hPa | 0 mm | - | - | - |
| 1777704494 | 16.67° C | 59% | 1025.3 hPa | 0 mm | - | - | - |
| 1777703287 | 15.56° C | 63% | 1025.3 hPa | 0 mm | - | - | - |
| 1777702081 | 15° C | 61% | 1025.3 hPa | 0 mm | - | - | - |
| 1777700878 | 12.22° C | 71% | 1025.3 hPa | 0 mm | - | - | - |
| 1777699675 | 8.89° C | 83% | 1025.3 hPa | 0 mm | - | - | - |
| 1777698475 | 6.67° C | 90% | 1025.2 hPa | 0 mm | - | - | - |
| 1777697274 | 5° C | 90% | 1025.2 hPa | 0 mm | - | - | - |
| 1777696062 | 2.78° C | 93% | 1025.1 hPa | 0 mm | - | - | - |
| 1777694862 | 2.22° C | 93% | 1025 hPa | 0 mm | - | - | - |
| 1777693650 | 1.67° C | 94% | 1025 hPa | 0 mm | - | - | - |
| 1777692450 | 1.67° C | 94% | 1025 hPa | 0 mm | - | - | - |
* Rain latest hour (hover to see other rain measurements)
** Current wind speed in m/s (hover to see current wind gust speed)